sensor_id;sensor_type;location;lat;lon;timestamp;pressure;altitude;pressure_sealevel;temperature;humidity
22031;BME280;11179;52.106;21.024;2024-01-07T00:00:57;100570.94;;;-4.80;59.27
22031;BME280;11179;52.106;21.024;2024-01-07T00:03:23;100569.47;;;-4.92;59.52
22031;BME280;11179;52.106;21.024;2024-01-07T00:05:48;100576.22;;;-4.88;59.89
22031;BME280;11179;52.106;21.024;2024-01-07T00:08:13;100565.50;;;-4.88;59.71
22031;BME280;11179;52.106;21.024;2024-01-07T00:10:38;100572.84;;;-4.90;59.93
22031;BME280;11179;52.106;21.024;2024-01-07T00:13:04;100572.16;;;-4.92;59.81
22031;BME280;11179;52.106;21.024;2024-01-07T00:15:29;100568.13;;;-4.96;59.85
22031;BME280;11179;52.106;21.024;2024-01-07T00:17:54;100566.50;;;-4.89;60.04
22031;BME280;11179;52.106;21.024;2024-01-07T00:20:20;100569.88;;;-4.87;59.98
22031;BME280;11179;52.106;21.024;2024-01-07T00:22:45;100574.53;;;-4.89;59.92
22031;BME280;11179;52.106;21.024;2024-01-07T00:25:11;100577.59;;;-4.84;59.95
22031;BME280;11179;52.106;21.024;2024-01-07T00:27:36;100575.06;;;-4.85;59.79
22031;BME280;11179;52.106;21.024;2024-01-07T00:30:01;100571.94;;;-4.81;59.84
22031;BME280;11179;52.106;21.024;2024-01-07T00:32:27;100577.50;;;-4.92;59.85
22031;BME280;11179;52.106;21.024;2024-01-07T00:34:52;100581.66;;;-4.98;60.31
22031;BME280;11179;52.106;21.024;2024-01-07T00:37:18;100588.84;;;-4.98;60.30
22031;BME280;11179;52.106;21.024;2024-01-07T00:39:43;100566.81;;;-5.10;60.24
22031;BME280;11179;52.106;21.024;2024-01-07T00:42:11;100579.06;;;-5.07;60.31
22031;BME280;11179;52.106;21.024;2024-01-07T00:44:37;100584.88;;;-5.12;60.65
22031;BME280;11179;52.106;21.024;2024-01-07T00:47:02;100585.00;;;-5.13;60.49
22031;BME280;11179;52.106;21.024;2024-01-07T00:49:28;100589.59;;;-5.06;60.45
22031;BME280;11179;52.106;21.024;2024-01-07T00:51:53;100595.72;;;-5.13;60.79
22031;BME280;11179;52.106;21.024;2024-01-07T00:54:18;100606.03;;;-5.18;60.80
22031;BME280;11179;52.106;21.024;2024-01-07T00:56:45;100604.97;;;-5.26;60.98
22031;BME280;11179;52.106;21.024;2024-01-07T00:59:10;100607.94;;;-5.29;60.97
22031;BME280;11179;52.106;21.024;2024-01-07T01:01:36;100604.41;;;-5.29;61.05
22031;BME280;11179;52.106;21.024;2024-01-07T01:04:01;100593.47;;;-5.36;61.15
22031;BME280;11179;52.106;21.024;2024-01-07T01:06:26;100597.38;;;-5.30;61.11
22031;BME280;11179;52.106;21.024;2024-01-07T01:08:51;100605.25;;;-5.29;60.78
22031;BME280;11179;52.106;21.024;2024-01-07T01:11:17;100600.66;;;-5.36;61.03
22031;BME280;11179;52.106;21.024;2024-01-07T01:13:42;100605.03;;;-5.35;61.46
22031;BME280;11179;52.106;21.024;2024-01-07T01:16:07;100604.47;;;-5.39;61.26
22031;BME280;11179;52.106;21.024;2024-01-07T01:18:33;100602.09;;;-5.42;61.17
22031;BME280;11179;52.106;21.024;2024-01-07T01:20:58;100607.38;;;-5.32;61.12
22031;BME280;11179;52.106;21.024;2024-01-07T01:23:23;100606.75;;;-5.44;61.03
22031;BME280;11179;52.106;21.024;2024-01-07T01:25:49;100613.00;;;-5.53;61.45
22031;BME280;11179;52.106;21.024;2024-01-07T01:28:14;100621.47;;;-5.57;61.52
22031;BME280;11179;52.106;21.024;2024-01-07T01:30:39;100608.84;;;-5.65;61.80
22031;BME280;11179;52.106;21.024;2024-01-07T01:33:06;100611.31;;;-5.54;61.79
22031;BME280;11179;52.106;21.024;2024-01-07T01:35:31;100609.88;;;-5.48;61.50
22031;BME280;11179;52.106;21.024;2024-01-07T01:37:57;100619.44;;;-5.46;61.43
22031;BME280;11179;52.106;21.024;2024-01-07T01:40:22;100616.75;;;-5.46;61.42
22031;BME280;11179;52.106;21.024;2024-01-07T01:42:47;100603.38;;;-5.46;61.53
22031;BME280;11179;52.106;21.024;2024-01-07T01:45:15;100616.22;;;-5.49;61.50
22031;BME280;11179;52.106;21.024;2024-01-07T01:47:41;100613.16;;;-5.54;61.56
22031;BME280;11179;52.106;21.024;2024-01-07T01:50:07;100619.19;;;-5.52;61.71
22031;BME280;11179;52.106;21.024;2024-01-07T01:52:33;100597.00;;;-5.63;61.80
22031;BME280;11179;52.106;21.024;2024-01-07T01:55:00;100614.59;;;-5.60;61.90
22031;BME280;11179;52.106;21.024;2024-01-07T01:57:31;100619.34;;;-5.54;61.75
22031;BME280;11179;52.106;21.024;2024-01-07T01:59:57;100613.97;;;-5.54;61.64
22031;BME280;11179;52.106;21.024;2024-01-07T02:02:27;100622.63;;;-5.60;61.87
22031;BME280;11179;52.106;21.024;2024-01-07T02:04:53;100606.56;;;-5.60;62.03
22031;BME280;11179;52.106;21.024;2024-01-07T02:07:18;100614.84;;;-5.53;62.04
22031;BME280;11179;52.106;21.024;2024-01-07T02:09:44;100605.25;;;-5.56;61.97
22031;BME280;11179;52.106;21.024;2024-01-07T02:12:09;100602.16;;;-5.51;61.98
22031;BME280;11179;52.106;21.024;2024-01-07T02:14:37;100608.34;;;-5.51;62.05
22031;BME280;11179;52.106;21.024;2024-01-07T02:17:02;100604.28;;;-5.55;62.15
22031;BME280;11179;52.106;21.024;2024-01-07T02:19:28;100600.31;;;-5.51;62.01
22031;BME280;11179;52.106;21.024;2024-01-07T02:21:53;100599.53;;;-5.61;62.10
22031;BME280;11179;52.106;21.024;2024-01-07T02:24:18;100606.56;;;-5.60;62.37
22031;BME280;11179;52.106;21.024;2024-01-07T02:26:44;100599.13;;;-5.66;62.38
22031;BME280;11179;52.106;21.024;2024-01-07T02:29:09;100599.81;;;-5.64;62.58
22031;BME280;11179;52.106;21.024;2024-01-07T02:31:34;100594.84;;;-5.59;62.46
22031;BME280;11179;52.106;21.024;2024-01-07T02:34:00;100581.47;;;-5.59;62.20
22031;BME280;11179;52.106;21.024;2024-01-07T02:36:25;100596.50;;;-5.48;62.06
22031;BME280;11179;52.106;21.024;2024-01-07T02:38:50;100580.19;;;-5.55;61.96
22031;BME280;11179;52.106;21.024;2024-01-07T02:41:16;100593.34;;;-5.62;62.37
22031;BME280;11179;52.106;21.024;2024-01-07T02:43:41;100590.75;;;-5.53;62.47
22031;BME280;11179;52.106;21.024;2024-01-07T02:46:07;100589.19;;;-5.46;62.16
22031;BME280;11179;52.106;21.024;2024-01-07T02:48:32;100597.59;;;-5.41;62.00
22031;BME280;11179;52.106;21.024;2024-01-07T02:50:58;100594.34;;;-5.45;62.00
22031;BME280;11179;52.106;21.024;2024-01-07T02:53:23;100594.97;;;-5.51;61.92
22031;BME280;11179;52.106;21.024;2024-01-07T02:55:48;100589.22;;;-5.56;62.17
22031;BME280;11179;52.106;21.024;2024-01-07T02:58:13;100593.56;;;-5.55;62.06
22031;BME280;11179;52.106;21.024;2024-01-07T03:00:39;100589.34;;;-5.57;62.38
22031;BME280;11179;52.106;21.024;2024-01-07T03:03:04;100587.94;;;-5.52;62.36
22031;BME280;11179;52.106;21.024;2024-01-07T03:05:29;100590.34;;;-5.59;62.20
22031;BME280;11179;52.106;21.024;2024-01-07T03:07:58;100606.25;;;-5.57;62.16
22031;BME280;11179;52.106;21.024;2024-01-07T03:10:24;100610.47;;;-5.54;62.50
22031;BME280;11179;52.106;21.024;2024-01-07T03:12:49;100615.69;;;-5.53;62.39
22031;BME280;11179;52.106;21.024;2024-01-07T03:15:14;100598.63;;;-5.52;62.16
22031;BME280;11179;52.106;21.024;2024-01-07T03:17:40;100596.94;;;-5.53;62.22
22031;BME280;11179;52.106;21.024;2024-01-07T03:20:06;100602.88;;;-5.59;62.03
22031;BME280;11179;52.106;21.024;2024-01-07T03:22:31;100597.59;;;-5.69;62.52
22031;BME280;11179;52.106;21.024;2024-01-07T03:24:57;100597.72;;;-5.70;62.68
22031;BME280;11179;52.106;21.024;2024-01-07T03:27:22;100592.22;;;-5.69;62.76
22031;BME280;11179;52.106;21.024;2024-01-07T03:29:47;100600.53;;;-5.62;62.54
22031;BME280;11179;52.106;21.024;2024-01-07T03:32:12;100593.06;;;-5.68;62.36
22031;BME280;11179;52.106;21.024;2024-01-07T03:34:38;100603.63;;;-5.67;62.62
22031;BME280;11179;52.106;21.024;2024-01-07T03:37:04;100601.53;;;-5.73;62.75
22031;BME280;11179;52.106;21.024;2024-01-07T03:39:32;100611.50;;;-5.65;62.78
22031;BME280;11179;52.106;21.024;2024-01-07T03:41:58;100606.44;;;-5.68;62.79
22031;BME280;11179;52.106;21.024;2024-01-07T03:44:23;100607.44;;;-5.69;62.67
22031;BME280;11179;52.106;21.024;2024-01-07T03:46:48;100608.44;;;-5.70;62.52
22031;BME280;11179;52.106;21.024;2024-01-07T03:49:14;100609.13;;;-5.68;62.57
22031;BME280;11179;52.106;21.024;2024-01-07T03:51:39;100608.56;;;-5.72;62.55
22031;BME280;11179;52.106;21.024;2024-01-07T03:54:05;100612.84;;;-5.79;62.27
22031;BME280;11179;52.106;21.024;2024-01-07T03:56:30;100612.56;;;-5.85;62.68
22031;BME280;11179;52.106;21.024;2024-01-07T03:58:56;100612.88;;;-5.88;62.87
22031;BME280;11179;52.106;21.024;2024-01-07T04:01:21;100598.22;;;-5.84;62.70
22031;BME280;11179;52.106;21.024;2024-01-07T04:03:47;100608.75;;;-5.73;62.69
22031;BME280;11179;52.106;21.024;2024-01-07T04:06:12;100615.38;;;-5.77;62.51
22031;BME280;11179;52.106;21.024;2024-01-07T04:08:37;100606.69;;;-5.89;62.61
22031;BME280;11179;52.106;21.024;2024-01-07T04:11:03;100615.84;;;-5.91;62.70
22031;BME280;11179;52.106;21.024;2024-01-07T04:13:28;100615.19;;;-6.03;62.58
22031;BME280;11179;52.106;21.024;2024-01-07T04:15:53;100620.66;;;-6.05;62.79
22031;BME280;11179;52.106;21.024;2024-01-07T04:18:19;100623.91;;;-6.11;62.72
22031;BME280;11179;52.106;21.024;2024-01-07T04:20:44;100614.22;;;-6.21;62.98
22031;BME280;11179;52.106;21.024;2024-01-07T04:23:09;100611.16;;;-6.26;63.04
22031;BME280;11179;52.106;21.024;2024-01-07T04:25:35;100617.31;;;-6.26;62.81
22031;BME280;11179;52.106;21.024;2024-01-07T04:28:00;100627.34;;;-6.28;62.83
22031;BME280;11179;52.106;21.024;2024-01-07T04:30:25;100613.28;;;-6.30;62.92
22031;BME280;11179;52.106;21.024;2024-01-07T04:32:51;100622.69;;;-6.36;62.86
22031;BME280;11179;52.106;21.024;2024-01-07T04:35:16;100625.81;;;-6.40;62.83
22031;BME280;11179;52.106;21.024;2024-01-07T04:37:42;100609.91;;;-6.51;62.98
22031;BME280;11179;52.106;21.024;2024-01-07T04:40:07;100612.47;;;-6.40;63.05
22031;BME280;11179;52.106;21.024;2024-01-07T04:42:33;100621.16;;;-6.38;62.99
22031;BME280;11179;52.106;21.024;2024-01-07T04:44:59;100623.69;;;-6.37;62.95
22031;BME280;11179;52.106;21.024;2024-01-07T04:47:30;100630.16;;;-6.39;62.95
22031;BME280;11179;52.106;21.024;2024-01-07T04:49:57;100626.81;;;-6.41;63.00
22031;BME280;11179;52.106;21.024;2024-01-07T04:52:23;100625.50;;;-6.37;62.93
22031;BME280;11179;52.106;21.024;2024-01-07T04:54:52;100626.91;;;-6.33;62.75
22031;BME280;11179;52.106;21.024;2024-01-07T04:57:18;100629.59;;;-6.33;62.73
22031;BME280;11179;52.106;21.024;2024-01-07T04:59:43;100625.94;;;-6.32;62.76
22031;BME280;11179;52.106;21.024;2024-01-07T05:02:10;100625.38;;;-6.36;62.55
22031;BME280;11179;52.106;21.024;2024-01-07T05:04:35;100638.16;;;-6.29;62.83
22031;BME280;11179;52.106;21.024;2024-01-07T05:07:01;100637.19;;;-6.38;62.76
22031;BME280;11179;52.106;21.024;2024-01-07T05:09:26;100628.63;;;-6.42;62.88
22031;BME280;11179;52.106;21.024;2024-01-07T05:11:51;100633.53;;;-6.37;62.73
22031;BME280;11179;52.106;21.024;2024-01-07T05:14:16;100635.50;;;-6.49;62.93
22031;BME280;11179;52.106;21.024;2024-01-07T05:16:42;100627.09;;;-6.54;62.95
22031;BME280;11179;52.106;21.024;2024-01-07T05:19:07;100639.84;;;-6.38;62.91
22031;BME280;11179;52.106;21.024;2024-01-07T05:21:33;100632.28;;;-6.52;62.81
22031;BME280;11179;52.106;21.024;2024-01-07T05:23:58;100643.25;;;-6.46;62.87
22031;BME280;11179;52.106;21.024;2024-01-07T05:26:23;100643.38;;;-6.47;62.87
22031;BME280;11179;52.106;21.024;2024-01-07T05:28:48;100646.75;;;-6.45;62.86
22031;BME280;11179;52.106;21.024;2024-01-07T05:31:15;100656.31;;;-6.43;62.87
22031;BME280;11179;52.106;21.024;2024-01-07T05:33:41;100649.44;;;-6.45;62.89
22031;BME280;11179;52.106;21.024;2024-01-07T05:36:06;100651.38;;;-6.38;62.88
22031;BME280;11179;52.106;21.024;2024-01-07T05:38:31;100652.66;;;-6.42;62.80
22031;BME280;11179;52.106;21.024;2024-01-07T05:40:57;100656.84;;;-6.39;62.84
22031;BME280;11179;52.106;21.024;2024-01-07T05:43:22;100649.56;;;-6.37;62.63
22031;BME280;11179;52.106;21.024;2024-01-07T05:45:47;100661.50;;;-6.32;62.67
22031;BME280;11179;52.106;21.024;2024-01-07T05:48:12;100660.38;;;-6.29;62.72
22031;BME280;11179;52.106;21.024;2024-01-07T05:50:38;100653.34;;;-6.30;62.66
22031;BME280;11179;52.106;21.024;2024-01-07T05:53:03;100645.06;;;-6.37;62.59
22031;BME280;11179;52.106;21.024;2024-01-07T05:55:29;100648.84;;;-6.39;62.60
22031;BME280;11179;52.106;21.024;2024-01-07T05:57:54;100657.16;;;-6.42;62.66
22031;BME280;11179;52.106;21.024;2024-01-07T06:00:20;100653.50;;;-6.51;62.83
22031;BME280;11179;52.106;21.024;2024-01-07T06:02:45;100653.09;;;-6.46;62.87
22031;BME280;11179;52.106;21.024;2024-01-07T06:05:10;100651.97;;;-6.44;62.80
22031;BME280;11179;52.106;21.024;2024-01-07T06:07:35;100652.38;;;-6.48;62.79
22031;BME280;11179;52.106;21.024;2024-01-07T06:10:01;100653.94;;;-6.55;62.72
22031;BME280;11179;52.106;21.024;2024-01-07T06:12:27;100659.97;;;-6.63;62.65
22031;BME280;11179;52.106;21.024;2024-01-07T06:14:52;100657.44;;;-6.64;62.97
22031;BME280;11179;52.106;21.024;2024-01-07T06:17:18;100647.34;;;-6.71;62.93
22031;BME280;11179;52.106;21.024;2024-01-07T06:19:43;100666.03;;;-6.61;62.93
22031;BME280;11179;52.106;21.024;2024-01-07T06:22:09;100646.34;;;-6.60;62.71
22031;BME280;11179;52.106;21.024;2024-01-07T06:24:34;100657.59;;;-6.47;62.69
22031;BME280;11179;52.106;21.024;2024-01-07T06:26:59;100667.28;;;-6.46;62.42
22031;BME280;11179;52.106;21.024;2024-01-07T06:29:25;100645.66;;;-6.72;62.39
22031;BME280;11179;52.106;21.024;2024-01-07T06:31:50;100678.13;;;-6.67;62.81
22031;BME280;11179;52.106;21.024;2024-01-07T06:34:15;100681.19;;;-6.61;62.90
22031;BME280;11179;52.106;21.024;2024-01-07T06:36:40;100677.81;;;-6.63;62.58
22031;BME280;11179;52.106;21.024;2024-01-07T06:39:07;100686.41;;;-6.70;62.76
22031;BME280;11179;52.106;21.024;2024-01-07T06:41:33;100686.53;;;-6.61;62.82
22031;BME280;11179;52.106;21.024;2024-01-07T06:43:58;100686.13;;;-6.67;62.74
22031;BME280;11179;52.106;21.024;2024-01-07T06:46:23;100693.13;;;-6.66;62.74
22031;BME280;11179;52.106;21.024;2024-01-07T06:48:49;100691.19;;;-6.73;62.57
22031;BME280;11179;52.106;21.024;2024-01-07T06:51:14;100700.59;;;-6.69;62.80
22031;BME280;11179;52.106;21.024;2024-01-07T06:53:40;100704.00;;;-6.67;62.67
22031;BME280;11179;52.106;21.024;2024-01-07T06:56:05;100682.59;;;-6.77;62.75
22031;BME280;11179;52.106;21.024;2024-01-07T06:58:31;100699.91;;;-6.61;62.81
22031;BME280;11179;52.106;21.024;2024-01-07T07:00:57;100699.06;;;-6.62;62.60
22031;BME280;11179;52.106;21.024;2024-01-07T07:03:23;100706.09;;;-6.61;62.57
22031;BME280;11179;52.106;21.024;2024-01-07T07:05:48;100696.81;;;-6.67;62.61
22031;BME280;11179;52.106;21.024;2024-01-07T07:08:13;100707.91;;;-6.61;62.67
22031;BME280;11179;52.106;21.024;2024-01-07T07:10:38;100708.75;;;-6.61;62.86
22031;BME280;11179;52.106;21.024;2024-01-07T07:13:04;100702.16;;;-6.57;62.68
22031;BME280;11179;52.106;21.024;2024-01-07T07:15:29;100720.59;;;-6.54;62.51
22031;BME280;11179;52.106;21.024;2024-01-07T07:17:55;100713.69;;;-6.47;62.66
22031;BME280;11179;52.106;21.024;2024-01-07T07:20:21;100701.59;;;-6.60;62.51
22031;BME280;11179;52.106;21.024;2024-01-07T07:22:46;100718.75;;;-6.53;62.58
22031;BME280;11179;52.106;21.024;2024-01-07T07:25:11;100715.91;;;-6.52;62.61
22031;BME280;11179;52.106;21.024;2024-01-07T07:27:37;100718.19;;;-6.47;62.69
22031;BME280;11179;52.106;21.024;2024-01-07T07:30:04;100715.38;;;-6.46;62.45
22031;BME280;11179;52.106;21.024;2024-01-07T07:32:29;100707.50;;;-6.47;62.49
22031;BME280;11179;52.106;21.024;2024-01-07T07:34:54;100729.56;;;-6.45;62.41
22031;BME280;11179;52.106;21.024;2024-01-07T07:37:20;100721.56;;;-6.55;62.30
22031;BME280;11179;52.106;21.024;2024-01-07T07:39:45;100719.75;;;-6.54;62.29
22031;BME280;11179;52.106;21.024;2024-01-07T07:42:10;100717.75;;;-6.52;62.31
22031;BME280;11179;52.106;21.024;2024-01-07T07:44:36;100728.88;;;-6.38;62.38
22031;BME280;11179;52.106;21.024;2024-01-07T07:47:01;100737.59;;;-6.36;62.32
22031;BME280;11179;52.106;21.024;2024-01-07T07:49:26;100729.00;;;-6.39;62.13
22031;BME280;11179;52.106;21.024;2024-01-07T07:51:52;100727.91;;;-6.27;62.21
22031;BME280;11179;52.106;21.024;2024-01-07T07:54:17;100741.25;;;-6.27;61.99
22031;BME280;11179;52.106;21.024;2024-01-07T07:56:42;100732.53;;;-6.19;61.92
22031;BME280;11179;52.106;21.024;2024-01-07T07:59:08;100732.13;;;-6.15;61.95
22031;BME280;11179;52.106;21.024;2024-01-07T08:01:34;100735.06;;;-6.18;61.91
22031;BME280;11179;52.106;21.024;2024-01-07T08:03:59;100733.66;;;-6.22;61.77
22031;BME280;11179;52.106;21.024;2024-01-07T08:06:24;100726.31;;;-6.10;61.93
22031;BME280;11179;52.106;21.024;2024-01-07T08:08:50;100734.91;;;-6.07;61.59
22031;BME280;11179;52.106;21.024;2024-01-07T08:11:15;100741.94;;;-6.06;61.79
22031;BME280;11179;52.106;21.024;2024-01-07T08:13:40;100742.66;;;-6.04;61.68
22031;BME280;11179;52.106;21.024;2024-01-07T08:16:06;100743.50;;;-6.13;61.38
22031;BME280;11179;52.106;21.024;2024-01-07T08:18:32;100757.56;;;-6.11;61.34
22031;BME280;11179;52.106;21.024;2024-01-07T08:20:58;100752.34;;;-6.12;61.49
22031;BME280;11179;52.106;21.024;2024-01-07T08:23:24;100766.28;;;-6.18;61.44
22031;BME280;11179;52.106;21.024;2024-01-07T08:25:49;100756.44;;;-6.18;61.54
22031;BME280;11179;52.106;21.024;2024-01-07T08:28:16;100766.88;;;-6.15;61.33
22031;BME280;11179;52.106;21.024;2024-01-07T08:30:41;100778.41;;;-6.14;61.19
22031;BME280;11179;52.106;21.024;2024-01-07T08:33:07;100774.44;;;-6.10;61.36
22031;BME280;11179;52.106;21.024;2024-01-07T08:35:32;100781.75;;;-6.12;61.23
22031;BME280;11179;52.106;21.024;2024-01-07T08:37:57;100774.16;;;-6.17;61.01
22031;BME280;11179;52.106;21.024;2024-01-07T08:40:23;100772.22;;;-6.15;61.17
22031;BME280;11179;52.106;21.024;2024-01-07T08:42:49;100771.50;;;-6.17;61.20
22031;BME280;11179;52.106;21.024;2024-01-07T08:45:14;100774.16;;;-6.17;61.28
22031;BME280;11179;52.106;21.024;2024-01-07T08:47:40;100777.53;;;-6.05;61.02
22031;BME280;11179;52.106;21.024;2024-01-07T08:50:05;100772.47;;;-5.99;60.99
22031;BME280;11179;52.106;21.024;2024-01-07T08:52:32;100773.00;;;-5.85;60.96
22031;BME280;11179;52.106;21.024;2024-01-07T08:55:00;100774.69;;;-5.84;60.68
22031;BME280;11179;52.106;21.024;2024-01-07T08:57:26;100783.16;;;-5.79;60.74
22031;BME280;11179;52.106;21.024;2024-01-07T08:59:51;100777.38;;;-5.84;60.50
22031;BME280;11179;52.106;21.024;2024-01-07T09:02:19;100774.84;;;-5.76;60.72
22031;BME280;11179;52.106;21.024;2024-01-07T09:04:45;100774.72;;;-5.75;60.73
22031;BME280;11179;52.106;21.024;2024-01-07T09:07:10;100768.06;;;-5.71;60.67
22031;BME280;11179;52.106;21.024;2024-01-07T09:09:35;100771.91;;;-5.73;60.37
22031;BME280;11179;52.106;21.024;2024-01-07T09:12:01;100762.84;;;-5.72;60.50
22031;BME280;11179;52.106;21.024;2024-01-07T09:14:26;100778.22;;;-5.65;60.65
22031;BME280;11179;52.106;21.024;2024-01-07T09:16:51;100776.09;;;-5.61;60.53
22031;BME280;11179;52.106;21.024;2024-01-07T09:19:18;100783.66;;;-5.56;60.36
22031;BME280;11179;52.106;21.024;2024-01-07T09:21:43;100781.41;;;-5.51;60.38
22031;BME280;11179;52.106;21.024;2024-01-07T09:24:09;100775.22;;;-5.52;59.97
22031;BME280;11179;52.106;21.024;2024-01-07T09:26:34;100775.22;;;-5.52;59.91
22031;BME280;11179;52.106;21.024;2024-01-07T09:29:00;100777.19;;;-5.54;59.61
22031;BME280;11179;52.106;21.024;2024-01-07T09:31:26;100777.47;;;-5.57;59.38
22031;BME280;11179;52.106;21.024;2024-01-07T09:33:52;100772.97;;;-5.56;59.28
22031;BME280;11179;52.106;21.024;2024-01-07T09:36:19;100768.47;;;-5.56;59.31
22031;BME280;11179;52.106;21.024;2024-01-07T09:38:44;100769.84;;;-5.42;59.40
22031;BME280;11179;52.106;21.024;2024-01-07T09:41:09;100767.28;;;-5.34;59.32
22031;BME280;11179;52.106;21.024;2024-01-07T09:43:35;100772.75;;;-5.26;59.24
22031;BME280;11179;52.106;21.024;2024-01-07T09:46:02;100766.53;;;-5.27;59.27
22031;BME280;11179;52.106;21.024;2024-01-07T09:48:28;100759.84;;;-5.40;59.13
22031;BME280;11179;52.106;21.024;2024-01-07T09:50:55;100761.69;;;-5.50;59.21
22031;BME280;11179;52.106;21.024;2024-01-07T09:53:25;100764.50;;;-5.52;59.56
22031;BME280;11179;52.106;21.024;2024-01-07T09:56:03;100766.78;;;-5.57;59.51
22031;BME280;11179;52.106;21.024;2024-01-07T09:58:31;100772.16;;;-5.67;59.40
22031;BME280;11179;52.106;21.024;2024-01-07T10:00:57;100779.34;;;-5.67;59.57
22031;BME280;11179;52.106;21.024;2024-01-07T10:03:22;100766.53;;;-5.64;59.52
22031;BME280;11179;52.106;21.024;2024-01-07T10:05:47;100764.41;;;-5.60;59.51
22031;BME280;11179;52.106;21.024;2024-01-07T10:08:13;100772.72;;;-5.63;59.62
22031;BME280;11179;52.106;21.024;2024-01-07T10:10:40;100771.31;;;-5.67;59.50
22031;BME280;11179;52.106;21.024;2024-01-07T10:13:06;100770.19;;;-5.65;59.45
22031;BME280;11179;52.106;21.024;2024-01-07T10:15:33;100762.13;;;-5.55;59.56
22031;BME280;11179;52.106;21.024;2024-01-07T10:18:03;100767.09;;;-5.60;59.02
22031;BME280;11179;52.106;21.024;2024-01-07T10:20:31;100762.28;;;-5.66;58.92
22031;BME280;11179;52.106;21.024;2024-01-07T10:22:57;100783.97;;;-5.69;58.74
22031;BME280;11179;52.106;21.024;2024-01-07T10:25:23;100773.88;;;-5.75;58.59
22031;BME280;11179;52.106;21.024;2024-01-07T10:27:48;100761.47;;;-5.86;58.62
22031;BME280;11179;52.106;21.024;2024-01-07T10:30:15;100761.47;;;-5.86;58.68
22031;BME280;11179;52.106;21.024;2024-01-07T10:32:42;100761.34;;;-5.84;58.77
22031;BME280;11179;52.106;21.024;2024-01-07T10:35:12;100756.84;;;-5.74;58.75
22031;BME280;11179;52.106;21.024;2024-01-07T10:37:38;100748.34;;;-5.70;58.77
22031;BME280;11179;52.106;21.024;2024-01-07T10:40:06;100764.78;;;-5.55;58.08
22031;BME280;11179;52.106;21.024;2024-01-07T10:42:33;100749.19;;;-5.60;58.31
22031;BME280;11179;52.106;21.024;2024-01-07T10:45:02;100766.38;;;-5.62;58.13
22031;BME280;11179;52.106;21.024;2024-01-07T10:47:30;100756.53;;;-5.62;58.28
22031;BME280;11179;52.106;21.024;2024-01-07T10:50:01;100766.78;;;-5.57;58.08
22031;BME280;11179;52.106;21.024;2024-01-07T10:52:27;100762.00;;;-5.63;58.00
22031;BME280;11179;52.106;21.024;2024-01-07T10:54:59;100767.75;;;-5.58;58.12
22031;BME280;11179;52.106;21.024;2024-01-07T10:57:34;100768.50;;;-5.66;57.85
22031;BME280;11179;52.106;21.024;2024-01-07T11:00:01;100774.72;;;-5.75;57.73
22031;BME280;11179;52.106;21.024;2024-01-07T11:02:34;100762.84;;;-5.72;58.04
22031;BME280;11179;52.106;21.024;2024-01-07T11:05:04;100763.41;;;-5.69;57.78
22031;BME280;11179;52.106;21.024;2024-01-07T11:07:41;100770.47;;;-5.68;57.64
22031;BME280;11179;52.106;21.024;2024-01-07T11:10:20;100780.03;;;-5.65;57.59
22031;BME280;11179;52.106;21.024;2024-01-07T11:12:56;100775.25;;;-5.71;57.64
22031;BME280;11179;52.106;21.024;2024-01-07T11:18:20;100770.19;;;-5.84;57.78
22031;BME280;11179;52.106;21.024;2024-01-07T11:20:46;100764.00;;;-5.84;57.51
22031;BME280;11179;52.106;21.024;2024-01-07T11:23:32;100765.56;;;-5.82;57.50
22031;BME280;11179;52.106;21.024;2024-01-07T11:26:06;100762.16;;;-5.65;57.92
22031;BME280;11179;52.106;21.024;2024-01-07T11:28:54;100759.72;;;-5.48;57.34
22031;BME280;11179;52.106;21.024;2024-01-07T11:31:43;100760.28;;;-5.54;57.53
22031;BME280;11179;52.106;21.024;2024-01-07T11:34:09;100762.78;;;-5.43;57.83
22031;BME280;11179;52.106;21.024;2024-01-07T11:36:37;100752.66;;;-5.40;57.53
22031;BME280;11179;52.106;21.024;2024-01-07T11:39:04;100742.94;;;-5.41;57.51
22031;BME280;11179;52.106;21.024;2024-01-07T11:41:35;100753.56;;;-5.21;57.35
22031;BME280;11179;52.106;21.024;2024-01-07T11:44:01;100749.09;;;-5.31;57.48
22031;BME280;11179;52.106;21.024;2024-01-07T11:46:28;100747.00;;;-5.37;57.34
22031;BME280;11179;52.106;21.024;2024-01-07T11:48:55;100753.34;;;-5.38;57.62
22031;BME280;11179;52.106;21.024;2024-01-07T11:51:30;100771.28;;;-5.48;57.23
22031;BME280;11179;52.106;21.024;2024-01-07T11:53:57;100769.63;;;-5.68;57.24
22031;BME280;11179;52.106;21.024;2024-01-07T11:56:24;100752.47;;;-5.85;57.64
22031;BME280;11179;52.106;21.024;2024-01-07T11:58:49;100759.94;;;-5.79;57.59
22031;BME280;11179;52.106;21.024;2024-01-07T12:01:15;100764.72;;;-5.82;57.47
22031;BME280;11179;52.106;21.024;2024-01-07T12:03:43;100773.31;;;-5.79;57.63
22031;BME280;11179;52.106;21.024;2024-01-07T12:06:09;100781.47;;;-5.80;57.34
22031;BME280;11179;52.106;21.024;2024-01-07T12:08:38;100764.72;;;-5.82;57.33
22031;BME280;11179;52.106;21.024;2024-01-07T12:11:04;100758.38;;;-5.81;57.41
22031;BME280;11179;52.106;21.024;2024-01-07T12:13:30;100756.94;;;-5.66;57.11
22031;BME280;11179;52.106;21.024;2024-01-07T12:15:56;100773.09;;;-5.58;57.18
22031;BME280;11179;52.106;21.024;2024-01-07T12:18:22;100777.19;;;-5.54;56.98
22031;BME280;11179;52.106;21.024;2024-01-07T12:20:56;100773.53;;;-5.53;57.15
22031;BME280;11179;52.106;21.024;2024-01-07T12:23:23;100774.66;;;-5.55;57.15
22031;BME280;11179;52.106;21.024;2024-01-07T12:25:49;100784.78;;;-5.59;57.07
22031;BME280;11179;52.106;21.024;2024-01-07T12:28:16;100779.44;;;-5.59;57.41
22031;BME280;11179;52.106;21.024;2024-01-07T12:30:42;100779.44;;;-5.59;57.40
22031;BME280;11179;52.106;21.024;2024-01-07T12:33:07;100774.41;;;-5.62;57.46
22031;BME280;11179;52.106;21.024;2024-01-07T12:35:34;100783.09;;;-5.50;57.57
22031;BME280;11179;52.106;21.024;2024-01-07T12:37:59;100786.72;;;-5.42;57.47